Terminal Aerodrome Forecast
Issued by NWS

Home | Current Version | Previous Version | Text Only | Print | Product List | Glossary On
Versions: 1 2 3 4 5 6 7 8 9 10 11 12 13 14 15
000
FTUS42 KGSP 041139
TAFHKY
TAF
KHKY 041139Z 0412/0512 07003KT P6SM -RA OVC060
      TEMPO 0412/0415 2SM -RA BR OVC004
     FM041500 08004KT 2SM -RA BR OVC008
      TEMPO 0415/0419 1SM RA BR OVC003
     FM041900 10003KT 1 1/2SM RA BR OVC003
     FM050600 00000KT 1/2SM FG OVC003=

USA.gov is the U.S. government's official web portal to all federal, state and local government web resources and services.